sensor_id;sensor_type;location;lat;lon;timestamp;pressure;altitude;pressure_sealevel;temperature;humidity
75536;BME280;64119;52.070;20.804;2023-12-04T00:01:50;100842.44;;;-1.82;93.05
75536;BME280;64119;52.070;20.804;2023-12-04T00:04:16;100844.83;;;-1.82;93.09
75536;BME280;64119;52.070;20.804;2023-12-04T00:06:44;100844.52;;;-1.82;93.59
75536;BME280;64119;52.070;20.804;2023-12-04T00:09:10;100843.14;;;-1.83;94.03
75536;BME280;64119;52.070;20.804;2023-12-04T00:11:37;100844.80;;;-1.81;93.40
75536;BME280;64119;52.070;20.804;2023-12-04T00:14:03;100849.95;;;-1.81;93.40
75536;BME280;64119;52.070;20.804;2023-12-04T00:16:33;100850.20;;;-1.79;93.68
75536;BME280;64119;52.070;20.804;2023-12-04T00:19:01;100847.73;;;-1.79;93.43
75536;BME280;64119;52.070;20.804;2023-12-04T00:21:28;100851.71;;;-1.78;93.73
75536;BME280;64119;52.070;20.804;2023-12-04T00:23:54;100850.08;;;-1.77;93.66
75536;BME280;64119;52.070;20.804;2023-12-04T00:26:20;100852.94;;;-1.76;93.72
75536;BME280;64119;52.070;20.804;2023-12-04T00:28:47;100852.61;;;-1.76;93.94
75536;BME280;64119;52.070;20.804;2023-12-04T00:31:13;100858.30;;;-1.76;93.88
75536;BME280;64119;52.070;20.804;2023-12-04T00:33:40;100859.84;;;-1.76;93.87
75536;BME280;64119;52.070;20.804;2023-12-04T00:36:07;100861.10;;;-1.74;93.63
75536;BME280;64119;52.070;20.804;2023-12-04T00:38:33;100861.84;;;-1.72;93.70
75536;BME280;64119;52.070;20.804;2023-12-04T00:41:00;100866.41;;;-1.73;94.42
75536;BME280;64119;52.070;20.804;2023-12-04T00:43:26;100869.23;;;-1.73;94.45
75536;BME280;64119;52.070;20.804;2023-12-04T00:45:53;100872.54;;;-1.73;94.40
75536;BME280;64119;52.070;20.804;2023-12-04T00:48:19;100872.71;;;-1.74;94.75
75536;BME280;64119;52.070;20.804;2023-12-04T00:50:46;100873.86;;;-1.73;94.25
75536;BME280;64119;52.070;20.804;2023-12-04T00:53:12;100877.41;;;-1.71;94.23
75536;BME280;64119;52.070;20.804;2023-12-04T00:55:39;100881.55;;;-1.71;94.90
75536;BME280;64119;52.070;20.804;2023-12-04T00:58:06;100885.53;;;-1.71;94.79
75536;BME280;64119;52.070;20.804;2023-12-04T01:00:32;100884.25;;;-1.72;95.07
75536;BME280;64119;52.070;20.804;2023-12-04T01:02:59;100884.90;;;-1.72;94.48
75536;BME280;64119;52.070;20.804;2023-12-04T01:05:26;100890.52;;;-1.70;94.71
75536;BME280;64119;52.070;20.804;2023-12-04T01:07:52;100894.50;;;-1.70;94.68
75536;BME280;64119;52.070;20.804;2023-12-04T01:10:19;100893.44;;;-1.70;94.86
75536;BME280;64119;52.070;20.804;2023-12-04T01:12:46;100891.88;;;-1.70;94.93
75536;BME280;64119;52.070;20.804;2023-12-04T01:15:12;100896.68;;;-1.69;94.74
75536;BME280;64119;52.070;20.804;2023-12-04T01:17:39;100896.33;;;-1.69;94.87
75536;BME280;64119;52.070;20.804;2023-12-04T01:20:06;100899.41;;;-1.68;94.86
75536;BME280;64119;52.070;20.804;2023-12-04T01:22:33;100899.95;;;-1.68;94.75
75536;BME280;64119;52.070;20.804;2023-12-04T01:25:00;100906.09;;;-1.70;95.46
75536;BME280;64119;52.070;20.804;2023-12-04T01:27:27;100903.63;;;-1.69;94.78
75536;BME280;64119;52.070;20.804;2023-12-04T01:29:53;100906.51;;;-1.68;94.70
75536;BME280;64119;52.070;20.804;2023-12-04T01:32:19;100909.88;;;-1.69;94.50
75536;BME280;64119;52.070;20.804;2023-12-04T01:34:48;100909.16;;;-1.69;94.60
75536;BME280;64119;52.070;20.804;2023-12-04T01:37:15;100912.29;;;-1.69;94.57
75536;BME280;64119;52.070;20.804;2023-12-04T01:39:41;100917.81;;;-1.71;94.44
75536;BME280;64119;52.070;20.804;2023-12-04T01:42:07;100914.45;;;-1.73;94.21
75536;BME280;64119;52.070;20.804;2023-12-04T01:44:34;100915.38;;;-1.76;93.97
75536;BME280;64119;52.070;20.804;2023-12-04T01:47:01;100921.24;;;-1.79;94.03
75536;BME280;64119;52.070;20.804;2023-12-04T01:49:28;100921.21;;;-1.81;94.09
75536;BME280;64119;52.070;20.804;2023-12-04T01:51:56;100927.09;;;-1.81;94.07
75536;BME280;64119;52.070;20.804;2023-12-04T01:54:23;100927.15;;;-1.82;94.08
75536;BME280;64119;52.070;20.804;2023-12-04T01:56:49;100921.08;;;-1.82;94.02
75536;BME280;64119;52.070;20.804;2023-12-04T01:59:15;100927.23;;;-1.83;94.09
75536;BME280;64119;52.070;20.804;2023-12-04T02:01:42;100929.70;;;-1.86;94.15
75536;BME280;64119;52.070;20.804;2023-12-04T02:04:09;100926.63;;;-1.90;94.26
75536;BME280;64119;52.070;20.804;2023-12-04T02:06:40;100925.16;;;-1.91;94.17
75536;BME280;64119;52.070;20.804;2023-12-04T02:09:07;100930.06;;;-1.92;94.07
75536;BME280;64119;52.070;20.804;2023-12-04T02:11:38;100930.33;;;-1.94;94.37
75536;BME280;64119;52.070;20.804;2023-12-04T02:14:06;100932.71;;;-1.96;94.49
75536;BME280;64119;52.070;20.804;2023-12-04T02:16:36;100934.49;;;-1.96;94.33
75536;BME280;64119;52.070;20.804;2023-12-04T02:19:07;100934.71;;;-2.00;93.80
75536;BME280;64119;52.070;20.804;2023-12-04T02:21:33;100933.40;;;-2.04;93.93
75536;BME280;64119;52.070;20.804;2023-12-04T02:24:00;100936.58;;;-2.08;93.49
75536;BME280;64119;52.070;20.804;2023-12-04T02:26:32;100938.07;;;-2.10;93.22
75536;BME280;64119;52.070;20.804;2023-12-04T02:29:05;100942.73;;;-2.15;93.36
75536;BME280;64119;52.070;20.804;2023-12-04T02:31:34;100946.84;;;-2.20;93.24
75536;BME280;64119;52.070;20.804;2023-12-04T02:34:04;100946.27;;;-2.21;93.33
75536;BME280;64119;52.070;20.804;2023-12-04T02:36:34;100947.44;;;-2.23;93.36
75536;BME280;64119;52.070;20.804;2023-12-04T02:39:01;100950.13;;;-2.25;93.52
75536;BME280;64119;52.070;20.804;2023-12-04T02:41:28;100949.98;;;-2.25;93.61
75536;BME280;64119;52.070;20.804;2023-12-04T02:43:55;100950.63;;;-2.25;93.76
75536;BME280;64119;52.070;20.804;2023-12-04T02:46:22;100956.66;;;-2.24;93.53
75536;BME280;64119;52.070;20.804;2023-12-04T02:48:49;100955.59;;;-2.24;93.74
75536;BME280;64119;52.070;20.804;2023-12-04T02:51:15;100958.02;;;-2.24;93.34
75536;BME280;64119;52.070;20.804;2023-12-04T02:53:42;100957.06;;;-2.25;93.56
75536;BME280;64119;52.070;20.804;2023-12-04T02:56:08;100957.59;;;-2.25;93.45
75536;BME280;64119;52.070;20.804;2023-12-04T02:58:35;100956.78;;;-2.26;93.37
75536;BME280;64119;52.070;20.804;2023-12-04T03:01:02;100958.13;;;-2.26;93.43
75536;BME280;64119;52.070;20.804;2023-12-04T03:03:28;100958.33;;;-2.26;93.51
75536;BME280;64119;52.070;20.804;2023-12-04T03:05:55;100959.74;;;-2.26;93.47
75536;BME280;64119;52.070;20.804;2023-12-04T03:08:24;100961.53;;;-2.25;93.48
75536;BME280;64119;52.070;20.804;2023-12-04T03:10:51;100961.71;;;-2.25;93.32
75536;BME280;64119;52.070;20.804;2023-12-04T03:13:17;100963.77;;;-2.24;93.11
75536;BME280;64119;52.070;20.804;2023-12-04T03:15:44;100964.58;;;-2.29;93.25
75536;BME280;64119;52.070;20.804;2023-12-04T03:18:10;100963.55;;;-2.29;93.27
75536;BME280;64119;52.070;20.804;2023-12-04T03:20:40;100963.54;;;-2.29;93.31
75536;BME280;64119;52.070;20.804;2023-12-04T03:23:06;100963.52;;;-2.29;93.36
75536;BME280;64119;52.070;20.804;2023-12-04T03:25:33;100967.48;;;-2.28;93.45
75536;BME280;64119;52.070;20.804;2023-12-04T03:27:59;100973.15;;;-2.27;93.35
75536;BME280;64119;52.070;20.804;2023-12-04T03:30:26;100971.16;;;-2.26;93.30
75536;BME280;64119;52.070;20.804;2023-12-04T03:32:53;100976.83;;;-2.25;93.19
75536;BME280;64119;52.070;20.804;2023-12-04T03:35:20;100975.91;;;-2.25;93.40
75536;BME280;64119;52.070;20.804;2023-12-04T03:37:47;100975.48;;;-2.23;93.27
75536;BME280;64119;52.070;20.804;2023-12-04T03:40:16;100976.14;;;-2.23;93.38
75536;BME280;64119;52.070;20.804;2023-12-04T03:42:43;100981.48;;;-2.22;93.36
75536;BME280;64119;52.070;20.804;2023-12-04T03:45:10;100982.20;;;-2.23;93.25
75536;BME280;64119;52.070;20.804;2023-12-04T03:47:36;100981.73;;;-2.23;93.28
75536;BME280;64119;52.070;20.804;2023-12-04T03:50:03;100980.09;;;-2.22;93.41
75536;BME280;64119;52.070;20.804;2023-12-04T03:52:33;100982.98;;;-2.21;93.37
75536;BME280;64119;52.070;20.804;2023-12-04T03:54:59;100982.67;;;-2.22;93.34
75536;BME280;64119;52.070;20.804;2023-12-04T03:57:26;100984.15;;;-2.21;93.31
75536;BME280;64119;52.070;20.804;2023-12-04T03:59:55;100987.30;;;-2.21;93.38
75536;BME280;64119;52.070;20.804;2023-12-04T04:02:21;100987.16;;;-2.22;93.22
75536;BME280;64119;52.070;20.804;2023-12-04T04:04:48;100987.55;;;-2.22;93.17
75536;BME280;64119;52.070;20.804;2023-12-04T04:07:16;100990.54;;;-2.23;93.25
75536;BME280;64119;52.070;20.804;2023-12-04T04:09:43;100994.10;;;-2.25;93.28
75536;BME280;64119;52.070;20.804;2023-12-04T04:12:09;100991.03;;;-2.25;93.37
75536;BME280;64119;52.070;20.804;2023-12-04T04:14:36;100998.48;;;-2.25;93.26
75536;BME280;64119;52.070;20.804;2023-12-04T04:17:03;100998.99;;;-2.25;93.26
75536;BME280;64119;52.070;20.804;2023-12-04T04:19:30;101000.57;;;-2.26;93.28
75536;BME280;64119;52.070;20.804;2023-12-04T04:21:56;100996.75;;;-2.26;93.14
75536;BME280;64119;52.070;20.804;2023-12-04T04:24:23;100994.13;;;-2.25;93.01
75536;BME280;64119;52.070;20.804;2023-12-04T04:26:49;100996.06;;;-2.26;93.17
75536;BME280;64119;52.070;20.804;2023-12-04T04:29:16;100998.02;;;-2.26;92.96
75536;BME280;64119;52.070;20.804;2023-12-04T04:31:42;100994.90;;;-2.26;92.99
75536;BME280;64119;52.070;20.804;2023-12-04T04:34:14;100994.97;;;-2.27;93.08
75536;BME280;64119;52.070;20.804;2023-12-04T04:36:42;100995.25;;;-2.30;93.05
75536;BME280;64119;52.070;20.804;2023-12-04T04:39:12;101003.52;;;-2.31;93.10
75536;BME280;64119;52.070;20.804;2023-12-04T04:41:40;101003.29;;;-2.33;93.01
75536;BME280;64119;52.070;20.804;2023-12-04T04:44:06;101007.29;;;-2.34;93.21
75536;BME280;64119;52.070;20.804;2023-12-04T04:46:33;101008.48;;;-2.33;92.86
75536;BME280;64119;52.070;20.804;2023-12-04T04:48:59;101007.80;;;-2.33;93.03
75536;BME280;64119;52.070;20.804;2023-12-04T04:51:29;101007.39;;;-2.35;92.97
75536;BME280;64119;52.070;20.804;2023-12-04T04:53:55;101010.75;;;-2.36;93.01
75536;BME280;64119;52.070;20.804;2023-12-04T04:56:22;101015.30;;;-2.37;93.08
75536;BME280;64119;52.070;20.804;2023-12-04T04:58:48;101015.21;;;-2.39;92.95
75536;BME280;64119;52.070;20.804;2023-12-04T05:01:19;101015.02;;;-2.41;93.04
75536;BME280;64119;52.070;20.804;2023-12-04T05:03:46;101014.55;;;-2.45;92.98
75536;BME280;64119;52.070;20.804;2023-12-04T05:06:12;101011.64;;;-2.46;93.14
75536;BME280;64119;52.070;20.804;2023-12-04T05:08:40;101010.48;;;-2.47;93.05
75536;BME280;64119;52.070;20.804;2023-12-04T05:11:06;101010.01;;;-2.47;93.01
75536;BME280;64119;52.070;20.804;2023-12-04T05:13:32;101008.33;;;-2.48;92.93
75536;BME280;64119;52.070;20.804;2023-12-04T05:15:59;101010.55;;;-2.47;92.83
75536;BME280;64119;52.070;20.804;2023-12-04T05:18:25;101015.52;;;-2.47;92.90
75536;BME280;64119;52.070;20.804;2023-12-04T05:20:52;101017.24;;;-2.46;93.10
75536;BME280;64119;52.070;20.804;2023-12-04T05:23:18;101018.39;;;-2.45;93.05
75536;BME280;64119;52.070;20.804;2023-12-04T05:25:45;101021.67;;;-2.45;92.96
75536;BME280;64119;52.070;20.804;2023-12-04T05:28:16;101022.73;;;-2.46;92.91
75536;BME280;64119;52.070;20.804;2023-12-04T05:30:43;101022.60;;;-2.46;93.11
75536;BME280;64119;52.070;20.804;2023-12-04T05:33:10;101022.65;;;-2.47;92.79
75536;BME280;64119;52.070;20.804;2023-12-04T05:35:37;101018.58;;;-2.48;92.95
75536;BME280;64119;52.070;20.804;2023-12-04T05:38:04;101017.38;;;-2.49;92.77
75536;BME280;64119;52.070;20.804;2023-12-04T05:40:31;101018.78;;;-2.49;93.14
75536;BME280;64119;52.070;20.804;2023-12-04T05:42:57;101016.22;;;-2.50;92.93
75536;BME280;64119;52.070;20.804;2023-12-04T05:45:24;101021.47;;;-2.50;93.07
75536;BME280;64119;52.070;20.804;2023-12-04T05:47:51;101020.20;;;-2.50;92.87
75536;BME280;64119;52.070;20.804;2023-12-04T05:50:18;101017.17;;;-2.48;92.87
75536;BME280;64119;52.070;20.804;2023-12-04T05:52:45;101014.31;;;-2.50;92.97
75536;BME280;64119;52.070;20.804;2023-12-04T05:55:11;101014.27;;;-2.49;92.87
75536;BME280;64119;52.070;20.804;2023-12-04T05:57:39;101021.34;;;-2.48;92.82
75536;BME280;64119;52.070;20.804;2023-12-04T06:00:07;101016.45;;;-2.48;92.96
75536;BME280;64119;52.070;20.804;2023-12-04T06:02:39;101015.19;;;-2.47;93.11
75536;BME280;64119;52.070;20.804;2023-12-04T06:05:06;101020.20;;;-2.47;92.93
75536;BME280;64119;52.070;20.804;2023-12-04T06:07:34;101024.78;;;-2.48;92.90
75536;BME280;64119;52.070;20.804;2023-12-04T06:10:02;101030.38;;;-2.49;92.87
75536;BME280;64119;52.070;20.804;2023-12-04T06:12:31;101034.35;;;-2.49;92.88
75536;BME280;64119;52.070;20.804;2023-12-04T06:14:57;101034.88;;;-2.49;92.97
75536;BME280;64119;52.070;20.804;2023-12-04T06:17:27;101033.45;;;-2.48;93.09
75536;BME280;64119;52.070;20.804;2023-12-04T06:19:54;101037.05;;;-2.47;93.07
75536;BME280;64119;52.070;20.804;2023-12-04T06:22:21;101042.13;;;-2.46;93.02
75536;BME280;64119;52.070;20.804;2023-12-04T06:24:49;101045.52;;;-2.45;93.04
75536;BME280;64119;52.070;20.804;2023-12-04T06:27:17;101041.66;;;-2.44;92.91
75536;BME280;64119;52.070;20.804;2023-12-04T06:29:47;101042.13;;;-2.43;93.07
75536;BME280;64119;52.070;20.804;2023-12-04T06:32:19;101039.91;;;-2.40;93.14
75536;BME280;64119;52.070;20.804;2023-12-04T06:34:45;101041.51;;;-2.38;93.29
75536;BME280;64119;52.070;20.804;2023-12-04T06:37:13;101040.02;;;-2.36;93.33
75536;BME280;64119;52.070;20.804;2023-12-04T06:39:40;101041.33;;;-2.35;93.23
75536;BME280;64119;52.070;20.804;2023-12-04T06:42:08;101045.05;;;-2.34;93.18
75536;BME280;64119;52.070;20.804;2023-12-04T06:44:36;101044.90;;;-2.31;93.17
75536;BME280;64119;52.070;20.804;2023-12-04T06:47:04;101045.42;;;-2.31;93.19
75536;BME280;64119;52.070;20.804;2023-12-04T06:49:32;101045.54;;;-2.30;93.37
75536;BME280;64119;52.070;20.804;2023-12-04T06:51:59;101050.08;;;-2.28;93.41
75536;BME280;64119;52.070;20.804;2023-12-04T06:54:26;101049.52;;;-2.25;93.21
75536;BME280;64119;52.070;20.804;2023-12-04T06:56:53;101048.89;;;-2.22;93.27
75536;BME280;64119;52.070;20.804;2023-12-04T06:59:20;101047.76;;;-2.21;93.33
75536;BME280;64119;52.070;20.804;2023-12-04T07:01:47;101050.44;;;-2.20;93.24
75536;BME280;64119;52.070;20.804;2023-12-04T07:04:13;101047.13;;;-2.19;93.36
75536;BME280;64119;52.070;20.804;2023-12-04T07:09:18;101050.86;;;-2.12;93.56
75536;BME280;64119;52.070;20.804;2023-12-04T07:11:46;101052.29;;;-2.13;93.40
75536;BME280;64119;52.070;20.804;2023-12-04T07:14:14;101055.33;;;-2.12;93.30
75536;BME280;64119;52.070;20.804;2023-12-04T07:16:42;101060.02;;;-2.09;93.25
75536;BME280;64119;52.070;20.804;2023-12-04T07:19:10;101063.84;;;-2.06;93.33
75536;BME280;64119;52.070;20.804;2023-12-04T07:21:39;101062.15;;;-2.04;93.14
75536;BME280;64119;52.070;20.804;2023-12-04T07:24:08;101063.65;;;-2.03;93.19
75536;BME280;64119;52.070;20.804;2023-12-04T07:26:36;101067.33;;;-2.01;93.28
75536;BME280;64119;52.070;20.804;2023-12-04T07:29:04;101067.27;;;-1.99;93.31
75536;BME280;64119;52.070;20.804;2023-12-04T07:31:32;101070.61;;;-1.97;93.24
75536;BME280;64119;52.070;20.804;2023-12-04T07:34:00;101069.98;;;-1.96;93.06
75536;BME280;64119;52.070;20.804;2023-12-04T07:36:29;101072.06;;;-1.93;93.07
75536;BME280;64119;52.070;20.804;2023-12-04T07:38:57;101073.83;;;-1.90;92.92
75536;BME280;64119;52.070;20.804;2023-12-04T07:41:25;101073.50;;;-1.88;92.83
75536;BME280;64119;52.070;20.804;2023-12-04T07:43:54;101069.41;;;-1.86;92.91
75536;BME280;64119;52.070;20.804;2023-12-04T07:46:22;101065.31;;;-1.84;92.91
75536;BME280;64119;52.070;20.804;2023-12-04T07:48:50;101064.93;;;-1.81;92.73
75536;BME280;64119;52.070;20.804;2023-12-04T07:51:21;101063.62;;;-1.80;92.78
75536;BME280;64119;52.070;20.804;2023-12-04T07:53:49;101063.88;;;-1.78;92.52
75536;BME280;64119;52.070;20.804;2023-12-04T07:56:17;101065.88;;;-1.77;92.54
75536;BME280;64119;52.070;20.804;2023-12-04T07:58:45;101071.29;;;-1.75;92.55
75536;BME280;64119;52.070;20.804;2023-12-04T08:01:14;101071.42;;;-1.71;92.31
75536;BME280;64119;52.070;20.804;2023-12-04T08:03:42;101076.44;;;-1.68;92.46
75536;BME280;64119;52.070;20.804;2023-12-04T08:06:11;101079.91;;;-1.66;92.31
75536;BME280;64119;52.070;20.804;2023-12-04T08:08:38;101078.92;;;-1.64;92.39
75536;BME280;64119;52.070;20.804;2023-12-04T08:11:09;101077.67;;;-1.60;92.17
75536;BME280;64119;52.070;20.804;2023-12-04T08:13:38;101078.23;;;-1.55;92.03
75536;BME280;64119;52.070;20.804;2023-12-04T08:16:15;101076.17;;;-1.50;91.71
75536;BME280;64119;52.070;20.804;2023-12-04T08:18:43;101079.35;;;-1.45;91.93
75536;BME280;64119;52.070;20.804;2023-12-04T08:21:12;101074.77;;;-1.42;91.44
75536;BME280;64119;52.070;20.804;2023-12-04T08:23:41;101075.77;;;-1.35;91.77
75536;BME280;64119;52.070;20.804;2023-12-04T08:26:09;101080.01;;;-1.30;91.72
75536;BME280;64119;52.070;20.804;2023-12-04T08:28:36;101077.30;;;-1.26;91.68
75536;BME280;64119;52.070;20.804;2023-12-04T08:31:09;101077.04;;;-1.22;91.71
75536;BME280;64119;52.070;20.804;2023-12-04T08:33:37;101079.43;;;-1.19;91.54
75536;BME280;64119;52.070;20.804;2023-12-04T08:36:05;101083.98;;;-1.14;91.11
75536;BME280;64119;52.070;20.804;2023-12-04T08:38:34;101082.45;;;-1.09;91.20
75536;BME280;64119;52.070;20.804;2023-12-04T08:41:03;101086.80;;;-1.09;90.71
75536;BME280;64119;52.070;20.804;2023-12-04T08:43:31;101089.80;;;-1.07;90.84
75536;BME280;64119;52.070;20.804;2023-12-04T08:45:59;101090.48;;;-1.07;90.71
75536;BME280;64119;52.070;20.804;2023-12-04T08:48:28;101089.59;;;-1.01;90.53
75536;BME280;64119;52.070;20.804;2023-12-04T08:50:57;101088.00;;;-0.93;90.33
75536;BME280;64119;52.070;20.804;2023-12-04T08:53:27;101098.31;;;-0.86;90.22
75536;BME280;64119;52.070;20.804;2023-12-04T08:55:55;101102.63;;;-0.77;90.13
75536;BME280;64119;52.070;20.804;2023-12-04T08:58:25;101107.01;;;-0.67;90.04
75536;BME280;64119;52.070;20.804;2023-12-04T09:00:53;101105.89;;;-0.58;88.47
75536;BME280;64119;52.070;20.804;2023-12-04T09:03:21;101105.55;;;-0.50;89.00
75536;BME280;64119;52.070;20.804;2023-12-04T09:05:59;101109.55;;;-0.37;89.51
75536;BME280;64119;52.070;20.804;2023-12-04T09:08:28;101108.05;;;-0.25;89.47
75536;BME280;64119;52.070;20.804;2023-12-04T09:11:06;101110.34;;;-0.21;87.86
75536;BME280;64119;52.070;20.804;2023-12-04T09:13:37;101107.38;;;-0.15;88.86
75536;BME280;64119;52.070;20.804;2023-12-04T09:16:06;101110.14;;;-0.05;88.93
75536;BME280;64119;52.070;20.804;2023-12-04T09:18:35;101112.59;;;0.03;89.05
75536;BME280;64119;52.070;20.804;2023-12-04T09:21:04;101113.28;;;0.06;89.14
75536;BME280;64119;52.070;20.804;2023-12-04T09:23:32;101117.60;;;0.09;88.51
75536;BME280;64119;52.070;20.804;2023-12-04T09:26:00;101118.34;;;0.05;87.80
75536;BME280;64119;52.070;20.804;2023-12-04T09:28:28;101115.42;;;0.05;87.89
75536;BME280;64119;52.070;20.804;2023-12-04T09:30:55;101114.92;;;0.05;88.44
75536;BME280;64119;52.070;20.804;2023-12-04T09:33:23;101110.52;;;0.05;88.36
75536;BME280;64119;52.070;20.804;2023-12-04T09:35:51;101106.53;;;0.08;88.16
75536;BME280;64119;52.070;20.804;2023-12-04T09:38:19;101103.11;;;0.07;86.87
75536;BME280;64119;52.070;20.804;2023-12-04T09:40:48;101102.16;;;0.11;86.32
75536;BME280;64119;52.070;20.804;2023-12-04T09:43:17;101098.09;;;0.14;86.41
75536;BME280;64119;52.070;20.804;2023-12-04T09:45:45;101094.38;;;0.20;86.76
75536;BME280;64119;52.070;20.804;2023-12-04T09:48:13;101093.81;;;0.31;86.32
75536;BME280;64119;52.070;20.804;2023-12-04T09:50:42;101096.92;;;0.34;86.46
75536;BME280;64119;52.070;20.804;2023-12-04T09:53:11;101101.83;;;0.23;86.12
75536;BME280;64119;52.070;20.804;2023-12-04T09:55:42;101098.70;;;0.20;86.33
75536;BME280;64119;52.070;20.804;2023-12-04T09:58:13;101096.63;;;0.23;85.80
75536;BME280;64119;52.070;20.804;2023-12-04T10:00:43;101098.42;;;0.24;85.53
75536;BME280;64119;52.070;20.804;2023-12-04T10:03:11;101095.81;;;0.22;85.02
75536;BME280;64119;52.070;20.804;2023-12-04T10:05:44;101093.13;;;0.23;85.19
75536;BME280;64119;52.070;20.804;2023-12-04T10:08:13;101090.55;;;0.35;84.26
75536;BME280;64119;52.070;20.804;2023-12-04T10:10:41;101085.91;;;0.42;84.64
75536;BME280;64119;52.070;20.804;2023-12-04T10:13:09;101089.62;;;0.53;85.29
75536;BME280;64119;52.070;20.804;2023-12-04T10:15:48;101084.62;;;0.57;84.58
75536;BME280;64119;52.070;20.804;2023-12-04T10:18:30;101086.05;;;0.62;84.33
75536;BME280;64119;52.070;20.804;2023-12-04T10:20:58;101087.20;;;0.65;84.77
75536;BME280;64119;52.070;20.804;2023-12-04T10:23:37;101085.08;;;0.66;84.51
75536;BME280;64119;52.070;20.804;2023-12-04T10:26:06;101082.73;;;0.67;84.55
75536;BME280;64119;52.070;20.804;2023-12-04T10:28:36;101080.17;;;0.69;84.67
75536;BME280;64119;52.070;20.804;2023-12-04T10:31:04;101077.67;;;0.72;84.43
75536;BME280;64119;52.070;20.804;2023-12-04T10:33:34;101076.27;;;0.77;84.48
75536;BME280;64119;52.070;20.804;2023-12-04T10:36:03;101076.93;;;0.85;83.92
75536;BME280;64119;52.070;20.804;2023-12-04T10:38:32;101075.89;;;0.87;83.53
75536;BME280;64119;52.070;20.804;2023-12-04T10:41:11;101075.94;;;0.79;83.88
75536;BME280;64119;52.070;20.804;2023-12-04T10:43:48;101082.01;;;0.77;83.09
75536;BME280;64119;52.070;20.804;2023-12-04T10:46:28;101079.23;;;0.82;83.32
75536;BME280;64119;52.070;20.804;2023-12-04T10:48:56;101082.09;;;0.88;83.87
75536;BME280;64119;52.070;20.804;2023-12-04T10:51:25;101076.73;;;0.92;83.55
75536;BME280;64119;52.070;20.804;2023-12-04T10:53:53;101072.85;;;0.93;82.36
75536;BME280;64119;52.070;20.804;2023-12-04T10:56:47;101075.28;;;0.98;82.92
75536;BME280;64119;52.070;20.804;2023-12-04T10:59:19;101074.72;;;1.03;81.95
75536;BME280;64119;52.070;20.804;2023-12-04T11:01:51;101076.91;;;1.13;80.98
75536;BME280;64119;52.070;20.804;2023-12-04T11:04:22;101077.54;;;1.19;79.45
75536;BME280;64119;52.070;20.804;2023-12-04T11:06:53;101079.98;;;1.26;81.31
75536;BME280;64119;52.070;20.804;2023-12-04T11:09:22;101082.73;;;1.34;81.34
75536;BME280;64119;52.070;20.804;2023-12-04T11:11:59;101082.85;;;1.38;81.60
75536;BME280;64119;52.070;20.804;2023-12-04T11:14:32;101081.21;;;1.45;81.52
75536;BME280;64119;52.070;20.804;2023-12-04T11:17:04;101079.92;;;1.62;79.53
75536;BME280;64119;52.070;20.804;2023-12-04T11:22:21;101072.06;;;2.37;75.83
75536;BME280;64119;52.070;20.804;2023-12-04T11:24:50;101073.10;;;2.68;75.98
75536;BME280;64119;52.070;20.804;2023-12-04T11:27:19;101072.92;;;2.88;74.41
75536;BME280;64119;52.070;20.804;2023-12-04T11:29:48;101071.80;;;3.17;74.37
75536;BME280;64119;52.070;20.804;2023-12-04T11:32:17;101070.47;;;3.35;71.38
75536;BME280;64119;52.070;20.804;2023-12-04T11:34:54;101073.45;;;3.29;71.91
75536;BME280;64119;52.070;20.804;2023-12-04T11:37:23;101072.05;;;3.27;76.80
75536;BME280;64119;52.070;20.804;2023-12-04T11:39:51;101069.98;;;3.35;76.13
75536;BME280;64119;52.070;20.804;2023-12-04T11:42:22;101066.77;;;3.55;74.33
75536;BME280;64119;52.070;20.804;2023-12-04T11:44:57;101067.42;;;3.84;76.14
75536;BME280;64119;52.070;20.804;2023-12-04T11:47:28;101057.85;;;4.25;74.30
75536;BME280;64119;52.070;20.804;2023-12-04T11:49:57;101056.73;;;4.52;74.71
75536;BME280;64119;52.070;20.804;2023-12-04T11:52:33;101055.55;;;4.65;74.00
75536;BME280;64119;52.070;20.804;2023-12-04T11:55:04;101057.42;;;4.62;72.14
75536;BME280;64119;52.070;20.804;2023-12-04T11:57:42;101057.06;;;4.38;70.93
75536;BME280;64119;52.070;20.804;2023-12-04T12:02:40;101058.38;;;3.80;71.07
75536;BME280;64119;52.070;20.804;2023-12-04T12:05:30;101052.70;;;3.51;71.05
75536;BME280;64119;52.070;20.804;2023-12-04T12:08:01;101055.41;;;3.27;72.44
75536;BME280;64119;52.070;20.804;2023-12-04T12:10:30;101057.42;;;3.26;72.07
75536;BME280;64119;52.070;20.804;2023-12-04T12:12:58;101056.84;;;3.25;72.31
75536;BME280;64119;52.070;20.804;2023-12-04T12:15:26;101054.69;;;3.09;72.19
75536;BME280;64119;52.070;20.804;2023-12-04T12:17:54;101055.00;;;3.01;72.34
75536;BME280;64119;52.070;20.804;2023-12-04T12:20:23;101048.86;;;2.84;71.23
75536;BME280;64119;52.070;20.804;2023-12-04T12:22:51;101041.99;;;2.66;72.29
75536;BME280;64119;52.070;20.804;2023-12-04T12:25:19;101038.32;;;2.58;71.57
75536;BME280;64119;52.070;20.804;2023-12-04T12:27:47;101038.02;;;2.42;72.07
75536;BME280;64119;52.070;20.804;2023-12-04T12:30:15;101034.41;;;2.24;71.53
75536;BME280;64119;52.070;20.804;2023-12-04T12:32:43;101036.61;;;2.11;71.89
75536;BME280;64119;52.070;20.804;2023-12-04T12:35:11;101038.19;;;1.95;71.65
75536;BME280;64119;52.070;20.804;2023-12-04T12:37:40;101036.77;;;1.91;72.57
75536;BME280;64119;52.070;20.804;2023-12-04T12:40:09;101034.70;;;1.91;72.38
75536;BME280;64119;52.070;20.804;2023-12-04T12:42:38;101030.20;;;1.83;71.98
75536;BME280;64119;52.070;20.804;2023-12-04T12:45:14;101025.10;;;1.77;72.17
75536;BME280;64119;52.070;20.804;2023-12-04T12:47:43;101027.02;;;1.75;72.24
75536;BME280;64119;52.070;20.804;2023-12-04T12:50:11;101024.11;;;1.70;72.85
75536;BME280;64119;52.070;20.804;2023-12-04T12:52:43;101027.66;;;1.66;72.45
75536;BME280;64119;52.070;20.804;2023-12-04T12:55:11;101025.05;;;1.64;73.49
75536;BME280;64119;52.070;20.804;2023-12-04T12:57:39;101028.02;;;1.66;73.00